Time;durP1;ratioP1;P1;durP2;ratioP2;P2;SDS_P1;SDS_P2;PMS_P1;PMS_P2;Temp;Humidity;BMP_temperature;BMP_pressure;BME280_temperature;BME280_humidity;BME280_pressure;Samples;Min_cycle;Max_cycle;Signal;HPM_P1;HPM_P2
2023/12/17 00:01:57;;;;;;;5.80;4.45;;;12.30;80.20;;;;;;4994022;28;20117;-76
2023/12/17 00:04:23;;;;;;;6.30;4.85;;;12.30;80.20;;;;;;4977522;28;20439;-76
2023/12/17 00:06:48;;;;;;;6.13;4.57;;;12.30;80.20;;;;;;4977508;28;20041;-77
2023/12/17 00:09:14;;;;;;;6.50;4.72;;;12.30;80.20;;;;;;4977642;28;20055;-76
2023/12/17 00:11:41;;;;;;;6.10;4.40;;;12.30;80.20;;;;;;4977693;28;20042;-76
2023/12/17 00:14:07;;;;;;;5.97;4.05;;;12.30;80.20;;;;;;4994193;28;20555;-76
2023/12/17 00:16:33;;;;;;;5.75;4.05;;;12.30;80.20;;;;;;4978004;28;20053;-76
2023/12/17 00:18:59;;;;;;;5.63;4.18;;;12.30;80.20;;;;;;4977130;28;20490;-76
2023/12/17 00:21:25;;;;;;;5.90;4.43;;;12.30;80.30;;;;;;4977807;28;20412;-75
2023/12/17 00:23:50;;;;;;;5.88;3.85;;;12.30;80.20;;;;;;4993610;28;20116;-76
2023/12/17 00:26:16;;;;;;;5.05;3.60;;;12.30;80.20;;;;;;4977583;28;20030;-76
2023/12/17 00:28:42;;;;;;;5.40;3.80;;;12.30;80.20;;;;;;4977700;28;20031;-76
2023/12/17 00:31:07;;;;;;;5.45;3.88;;;12.30;80.20;;;;;;4961517;28;20070;-76
2023/12/17 00:33:33;;;;;;;5.70;3.75;;;12.30;80.20;;;;;;4978105;28;20033;-78
2023/12/17 00:35:59;;;;;;;4.97;3.38;;;12.40;80.20;;;;;;4977427;28;20022;-76
2023/12/17 00:38:24;;;;;;;5.85;3.92;;;12.40;80.20;;;;;;4978115;28;20073;-76
2023/12/17 00:40:50;;;;;;;5.18;3.88;;;12.40;80.80;;;;;;4977049;28;20026;-74
2023/12/17 00:43:16;;;;;;;4.78;3.50;;;12.30;80.20;;;;;;4993156;28;20049;-75
2023/12/17 00:45:42;;;;;;;5.35;3.65;;;12.40;80.40;;;;;;4977400;28;20355;-76
2023/12/17 00:48:07;;;;;;;5.03;3.17;;;12.40;80.20;;;;;;4993807;28;20045;-77
2023/12/17 00:50:34;;;;;;;5.10;3.83;;;12.40;80.20;;;;;;4961072;28;20069;-76
2023/12/17 00:53:00;;;;;;;5.18;3.60;;;12.40;80.20;;;;;;4993401;28;20113;-75
2023/12/17 00:55:26;;;;;;;5.20;3.70;;;12.40;80.20;;;;;;4977763;28;20134;-76
2023/12/17 00:57:51;;;;;;;4.53;3.17;;;12.40;80.30;;;;;;4977416;28;20348;-76
2023/12/17 01:00:17;;;;;;;4.63;3.33;;;12.40;80.20;;;;;;4976819;28;20137;-76
2023/12/17 01:02:43;;;;;;;4.85;3.55;;;12.40;80.20;;;;;;4993515;28;20034;-76
2023/12/17 01:05:09;;;;;;;4.18;2.97;;;12.40;80.20;;;;;;4977011;28;20030;-76
2023/12/17 01:07:34;;;;;;;4.78;3.10;;;12.40;80.20;;;;;;4993014;28;20410;-76
2023/12/17 01:10:00;;;;;;;5.80;3.72;;;12.40;80.20;;;;;;4992605;28;20101;-76
2023/12/17 01:12:26;;;;;;;3.55;2.70;;;12.40;80.20;;;;;;4992989;28;20547;-75
2023/12/17 01:14:52;;;;;;;4.78;3.00;;;12.40;80.20;;;;;;4977106;28;20114;-76
2023/12/17 01:17:17;;;;;;;4.40;3.17;;;12.40;80.20;;;;;;4977067;28;20035;-76
2023/12/17 01:19:43;;;;;;;3.75;2.80;;;12.40;80.20;;;;;;4976680;28;20030;-76
2023/12/17 01:22:09;;;;;;;4.28;2.85;;;12.40;80.20;;;;;;4992855;28;20030;-76
2023/12/17 01:24:35;;;;;;;5.18;3.38;;;12.40;80.20;;;;;;4992544;28;20038;-76
2023/12/17 01:27:00;;;;;;;4.75;3.35;;;12.40;80.20;;;;;;4976771;28;20443;-76
2023/12/17 01:29:26;;;;;;;4.45;3.10;;;12.40;80.20;;;;;;4993377;28;20038;-76
2023/12/17 01:31:52;;;;;;;4.03;3.10;;;12.40;80.20;;;;;;4993881;28;20026;-76
2023/12/17 01:34:21;;;;;;;3.95;3.05;;;12.40;80.20;;;;;;4992844;28;20089;-75
2023/12/17 01:36:46;;;;;;;5.28;3.95;;;12.40;80.20;;;;;;4976634;28;20041;-76
2023/12/17 01:39:12;;;;;;;3.88;2.75;;;12.40;80.20;;;;;;4993510;28;20039;-76
2023/12/17 01:41:38;;;;;;;4.38;2.90;;;12.40;80.20;;;;;;4992790;28;20409;-76
2023/12/17 01:44:03;;;;;;;4.75;3.00;;;12.40;80.20;;;;;;4976139;28;20038;-76
2023/12/17 01:46:29;;;;;;;3.80;2.78;;;12.40;80.20;;;;;;4992863;28;20051;-75
2023/12/17 01:48:55;;;;;;;4.30;3.00;;;12.40;80.20;;;;;;4992562;28;20502;-76
2023/12/17 01:51:21;;;;;;;4.38;2.95;;;12.40;80.20;;;;;;4976331;28;20395;-76
2023/12/17 01:53:47;;;;;;;4.05;3.03;;;12.40;80.20;;;;;;4976463;28;20125;-77
2023/12/17 01:56:15;;;;;;;4.68;2.75;;;12.40;80.20;;;;;;4960436;28;20479;-76
2023/12/17 01:58:41;;;;;;;4.50;2.90;;;12.40;80.20;;;;;;4992679;28;20086;-76
2023/12/17 02:01:08;;;;;;;4.35;2.90;;;12.40;80.20;;;;;;4992418;28;20026;-77
2023/12/17 02:03:33;;;;;;;4.20;2.90;;;12.40;80.20;;;;;;4976266;28;20030;-75
2023/12/17 02:06:00;;;;;;;3.45;2.75;;;12.40;80.20;;;;;;4976288;28;20594;-75
2023/12/17 02:08:26;;;;;;;4.30;2.85;;;12.40;80.20;;;;;;4992841;28;20037;-77
2023/12/17 02:10:53;;;;;;;4.18;2.97;;;12.40;80.10;;;;;;4976489;28;20113;-75
2023/12/17 02:13:19;;;;;;;4.13;2.75;;;12.40;80.20;;;;;;4992367;28;20050;-76
2023/12/17 02:15:45;;;;;;;3.45;2.70;;;12.40;80.10;;;;;;4976169;28;20066;-76
2023/12/17 02:18:11;;;;;;;4.25;3.35;;;12.40;80.20;;;;;;4976142;28;20100;-76
2023/12/17 02:20:37;;;;;;;4.50;3.25;;;12.40;80.20;;;;;;4975927;28;20476;-76
2023/12/17 02:23:04;;;;;;;4.47;2.75;;;12.40;80.20;;;;;;4992667;28;20113;-76
2023/12/17 02:25:31;;;;;;;4.40;3.00;;;12.40;80.20;;;;;;4991857;28;20026;-76
2023/12/17 02:27:58;;;;;;;4.57;2.90;;;12.40;80.20;;;;;;4976285;28;20041;-77
2023/12/17 02:30:24;;;;;;;4.78;2.75;;;12.40;80.20;;;;;;4975787;28;20043;-77
2023/12/17 02:32:51;;;;;;;3.97;2.92;;;12.40;80.20;;;;;;4992092;28;20022;-76
2023/12/17 02:35:17;;;;;;;4.22;2.90;;;12.40;80.20;;;;;;4992675;28;20042;-76
2023/12/17 02:37:42;;;;;;;4.53;3.28;;;12.40;80.20;;;;;;4976049;28;20106;-76
2023/12/17 02:40:09;;;;;;;3.58;2.45;;;12.40;80.20;;;;;;4992287;28;20042;-76
2023/12/17 02:42:34;;;;;;;4.13;2.92;;;12.40;80.20;;;;;;4994561;28;20065;-76
2023/12/17 02:45:00;;;;;;;4.30;3.03;;;12.40;80.20;;;;;;4979753;28;20038;-76
2023/12/17 02:47:26;;;;;;;4.35;2.88;;;12.40;80.20;;;;;;4979611;28;20035;-76
2023/12/17 02:49:52;;;;;;;4.38;2.83;;;12.40;80.20;;;;;;4979634;28;20463;-76
2023/12/17 02:52:18;;;;;;;3.53;2.58;;;12.40;80.20;;;;;;4979993;28;20374;-75
2023/12/17 02:54:44;;;;;;;3.85;2.92;;;12.40;80.10;;;;;;4995481;28;20077;-76
2023/12/17 02:57:10;;;;;;;3.58;2.55;;;12.40;80.10;;;;;;4979207;28;20026;-76
2023/12/17 02:59:36;;;;;;;3.78;2.83;;;12.40;80.20;;;;;;4995194;28;20058;-76
2023/12/17 03:02:02;;;;;;;3.58;2.45;;;12.40;80.20;;;;;;4979101;28;20125;-76
2023/12/17 03:04:28;;;;;;;4.88;3.20;;;12.40;80.20;;;;;;4978957;28;20038;-77
2023/12/17 03:06:53;;;;;;;4.75;3.13;;;12.40;80.20;;;;;;4996371;28;20498;-78
2023/12/17 03:09:21;;;;;;;3.92;2.80;;;12.40;80.20;;;;;;4996323;28;20105;-76
2023/12/17 03:11:46;;;;;;;3.67;2.70;;;12.40;80.20;;;;;;4995188;28;20061;-78
2023/12/17 03:14:12;;;;;;;4.55;3.25;;;12.40;80.20;;;;;;4979275;28;20042;-78
2023/12/17 03:16:38;;;;;;;4.95;3.10;;;12.40;80.20;;;;;;4978965;28;20426;-76
2023/12/17 03:19:03;;;;;;;4.72;3.42;;;12.40;80.20;;;;;;4995571;28;20423;-74
2023/12/17 03:21:29;;;;;;;4.60;3.00;;;12.40;80.20;;;;;;4979133;28;20038;-77
2023/12/17 03:23:55;;;;;;;4.03;2.85;;;12.40;80.20;;;;;;4994830;28;20049;-76
2023/12/17 03:26:21;;;;;;;4.05;2.95;;;12.40;80.20;;;;;;4978878;28;20088;-77
2023/12/17 03:28:47;;;;;;;5.03;3.22;;;12.40;80.20;;;;;;4994855;28;20052;-77
2023/12/17 03:31:16;;;;;;;4.07;2.60;;;12.50;80.20;;;;;;4978964;28;20034;-75
2023/12/17 03:33:43;;;;;;;4.18;2.90;;;12.40;80.20;;;;;;4994797;28;20037;-76
2023/12/17 03:36:14;;;;;;;4.60;2.95;;;12.50;80.20;;;;;;4978621;28;20038;-76
2023/12/17 03:38:41;;;;;;;4.13;3.15;;;12.40;80.20;;;;;;4994831;28;20026;-77
2023/12/17 03:41:18;;;;;;;4.22;2.92;;;12.40;80.20;;;;;;4994850;28;20029;-77
2023/12/17 03:43:44;;;;;;;4.22;2.92;;;12.40;80.20;;;;;;4994639;28;20109;-76
2023/12/17 03:46:09;;;;;;;4.38;3.00;;;12.50;80.20;;;;;;4978235;28;20104;-77
2023/12/17 03:48:35;;;;;;;4.97;3.17;;;12.40;80.20;;;;;;4995437;28;20034;-76
2023/12/17 03:51:01;;;;;;;4.50;2.85;;;12.50;80.20;;;;;;4978391;28;20038;-76
2023/12/17 03:53:26;;;;;;;4.10;2.75;;;12.40;80.20;;;;;;4977121;28;20047;-75
2023/12/17 03:55:52;;;;;;;4.78;3.40;;;12.40;80.20;;;;;;4977988;28;20109;-77
2023/12/17 03:58:18;;;;;;;4.57;3.28;;;12.40;80.20;;;;;;4978131;28;20034;-76
2023/12/17 04:00:44;;;;;;;3.92;2.75;;;12.40;80.20;;;;;;4994203;28;20039;-76
2023/12/17 04:03:09;;;;;;;4.50;2.75;;;12.40;80.20;;;;;;4978101;28;20022;-74
2023/12/17 04:05:35;;;;;;;3.67;2.90;;;12.50;80.30;;;;;;4978294;28;20037;-75
2023/12/17 04:08:01;;;;;;;5.15;3.13;;;12.40;80.20;;;;;;4978079;28;20121;-75
2023/12/17 04:10:27;;;;;;;4.32;2.90;;;12.50;80.30;;;;;;4977619;28;20054;-76
2023/12/17 04:12:52;;;;;;;4.13;2.97;;;12.40;80.20;;;;;;4978255;28;20039;-76
2023/12/17 04:15:18;;;;;;;3.72;2.70;;;12.40;80.20;;;;;;4978280;28;20105;-75
2023/12/17 04:17:44;;;;;;;4.70;3.00;;;12.50;80.20;;;;;;4977758;28;20030;-77
2023/12/17 04:20:10;;;;;;;4.05;2.83;;;12.40;80.20;;;;;;4993778;28;20026;-76
2023/12/17 04:22:36;;;;;;;4.18;2.55;;;12.40;80.20;;;;;;4977614;28;20034;-75
2023/12/17 04:25:02;;;;;;;4.85;3.00;;;12.40;80.20;;;;;;4977661;28;20538;-76
2023/12/17 04:27:27;;;;;;;4.35;2.78;;;12.40;80.20;;;;;;4994597;28;20120;-76
2023/12/17 04:29:54;;;;;;;4.22;2.83;;;12.50;80.30;;;;;;4977647;28;20034;-76
2023/12/17 04:32:19;;;;;;;5.22;3.00;;;12.40;80.20;;;;;;4993886;28;20026;-73
2023/12/17 04:34:45;;;;;;;3.83;2.80;;;12.40;80.20;;;;;;4994930;28;20113;-75
2023/12/17 04:37:11;;;;;;;3.83;2.67;;;12.50;80.30;;;;;;4993442;28;20061;-76
2023/12/17 04:39:36;;;;;;;4.47;2.72;;;12.40;80.20;;;;;;4993291;28;20499;-77
2023/12/17 04:42:02;;;;;;;3.38;2.53;;;12.50;80.20;;;;;;4993651;28;20046;-76
2023/12/17 04:44:28;;;;;;;4.53;2.83;;;12.40;80.20;;;;;;4977406;28;20486;-75
2023/12/17 04:46:54;;;;;;;4.50;2.88;;;12.50;80.20;;;;;;4977332;28;20030;-77
2023/12/17 04:49:19;;;;;;;4.03;2.60;;;12.50;80.20;;;;;;4994120;28;20069;-76
2023/12/17 04:51:45;;;;;;;4.10;2.78;;;12.50;80.30;;;;;;4977267;28;20555;-75
2023/12/17 04:54:13;;;;;;;4.10;2.80;;;12.50;80.20;;;;;;4993627;28;20088;-75
2023/12/17 04:56:39;;;;;;;3.72;2.63;;;12.50;80.20;;;;;;4977103;28;20050;-75
2023/12/17 04:59:04;;;;;;;3.78;2.58;;;12.50;80.20;;;;;;4993351;28;20038;-76
2023/12/17 05:01:30;;;;;;;4.53;3.30;;;12.50;80.20;;;;;;4994543;28;20475;-75
2023/12/17 05:03:56;;;;;;;3.88;2.90;;;12.50;80.30;;;;;;4976980;28;20148;-76
2023/12/17 05:06:21;;;;;;;3.88;2.53;;;12.40;80.20;;;;;;4992739;28;20034;-77
2023/12/17 05:08:47;;;;;;;4.18;3.10;;;12.50;80.20;;;;;;4993304;28;20046;-75
2023/12/17 05:11:13;;;;;;;4.60;3.00;;;12.50;80.20;;;;;;4977475;28;20034;-76
2023/12/17 05:13:38;;;;;;;4.55;2.97;;;12.40;80.20;;;;;;4977097;28;20044;-77
2023/12/17 05:16:05;;;;;;;4.13;3.03;;;12.50;80.20;;;;;;4976895;28;20479;-76
2023/12/17 05:18:30;;;;;;;4.05;2.75;;;12.40;80.20;;;;;;4992809;28;20049;-76
2023/12/17 05:20:56;;;;;;;4.45;3.15;;;12.50;80.30;;;;;;4993133;28;20034;-74
2023/12/17 05:23:22;;;;;;;3.92;3.05;;;12.50;80.20;;;;;;4977073;28;20125;-75
2023/12/17 05:25:47;;;;;;;3.80;2.97;;;12.50;80.30;;;;;;4993774;28;20527;-76
2023/12/17 05:28:13;;;;;;;4.55;3.15;;;12.40;80.30;;;;;;4977329;28;20172;-75
2023/12/17 05:30:39;;;;;;;4.75;2.97;;;12.40;80.30;;;;;;4994735;28;20493;-77
2023/12/17 05:33:04;;;;;;;4.95;3.22;;;12.40;80.30;;;;;;4976381;28;20045;-75
2023/12/17 05:35:30;;;;;;;6.40;3.78;;;12.40;80.30;;;;;;4976371;28;20121;-77
2023/12/17 05:37:56;;;;;;;4.68;3.45;;;12.40;80.30;;;;;;4976687;28;20050;-76
2023/12/17 05:40:22;;;;;;;4.93;3.05;;;12.40;80.20;;;;;;4976282;28;20022;-76
2023/12/17 05:42:47;;;;;;;5.05;3.35;;;12.40;80.20;;;;;;4992828;28;20034;-75
2023/12/17 05:45:13;;;;;;;5.13;3.45;;;12.40;80.30;;;;;;4993616;28;20375;-76
2023/12/17 05:47:39;;;;;;;6.05;3.67;;;12.40;80.30;;;;;;4992884;28;20094;-77
2023/12/17 05:50:07;;;;;;;4.20;3.13;;;12.40;80.30;;;;;;4960756;28;20034;-76
2023/12/17 05:52:33;;;;;;;5.40;3.50;;;12.40;80.30;;;;;;4992777;28;20034;-74
2023/12/17 05:54:59;;;;;;;5.45;3.90;;;12.40;80.30;;;;;;4976439;28;20041;-75
2023/12/17 05:57:25;;;;;;;5.85;3.92;;;12.40;80.30;;;;;;4992709;28;20038;-77
2023/12/17 05:59:50;;;;;;;6.20;4.30;;;12.40;80.30;;;;;;4977218;28;20034;-76
2023/12/17 06:02:16;;;;;;;6.13;3.97;;;12.40;80.30;;;;;;4992470;28;20476;-76
2023/12/17 06:04:42;;;;;;;6.03;4.00;;;12.40;80.90;;;;;;4976296;28;20030;-76
2023/12/17 06:07:07;;;;;;;6.18;4.63;;;12.40;80.30;;;;;;4993741;28;20049;-77
2023/12/17 06:09:33;;;;;;;6.47;4.30;;;12.40;80.30;;;;;;4991744;28;20642;-76
2023/12/17 06:11:59;;;;;;;6.65;4.68;;;12.40;80.30;;;;;;4976566;28;20037;-76
2023/12/17 06:14:24;;;;;;;7.10;5.05;;;12.40;80.30;;;;;;4992491;28;20035;-77
2023/12/17 06:16:50;;;;;;;7.50;4.68;;;12.40;80.30;;;;;;4993384;28;20037;-76
2023/12/17 06:19:16;;;;;;;6.60;4.68;;;12.40;80.30;;;;;;4980711;28;20121;-76
2023/12/17 06:21:42;;;;;;;6.13;4.28;;;12.40;80.30;;;;;;4996608;28;20497;-75
2023/12/17 06:24:08;;;;;;;7.38;4.90;;;12.40;80.30;;;;;;4979966;28;20158;-76
2023/12/17 06:26:36;;;;;;;7.78;5.13;;;12.40;80.30;;;;;;4979938;28;20062;-77
2023/12/17 06:29:02;;;;;;;5.70;4.25;;;12.40;80.40;;;;;;4979848;28;20119;-74
2023/12/17 06:31:28;;;;;;;6.63;4.47;;;12.40;80.40;;;;;;4996053;28;20075;-76
2023/12/17 06:33:54;;;;;;;7.35;5.05;;;12.40;80.40;;;;;;4997447;28;20033;-75
2023/12/17 06:36:20;;;;;;;7.47;5.45;;;12.40;80.40;;;;;;4979837;28;20034;-77
2023/12/17 06:38:47;;;;;;;7.32;5.28;;;12.40;80.40;;;;;;4995919;28;20490;-76
2023/12/17 06:41:13;;;;;;;7.07;5.00;;;12.40;80.40;;;;;;4996796;28;20034;-76
2023/12/17 06:43:42;;;;;;;6.57;4.95;;;12.40;80.30;;;;;;4979595;28;20038;-76
2023/12/17 06:46:14;;;;;;;7.75;5.53;;;12.40;80.40;;;;;;4996156;28;20038;-76
2023/12/17 06:48:41;;;;;;;6.60;4.75;;;12.40;80.40;;;;;;4979453;28;20026;-76
2023/12/17 06:51:07;;;;;;;7.05;5.53;;;12.40;80.40;;;;;;4996521;28;20034;-75
2023/12/17 06:53:33;;;;;;;8.85;5.88;;;12.40;80.40;;;;;;4979142;28;20027;-74
2023/12/17 06:55:58;;;;;;;7.57;5.35;;;12.40;80.40;;;;;;4995205;28;20137;-76
2023/12/17 06:58:24;;;;;;;6.88;4.85;;;12.40;80.40;;;;;;4979315;28;20074;-78
2023/12/17 07:00:50;;;;;;;7.35;5.07;;;12.40;80.30;;;;;;4995506;28;20034;-75
2023/12/17 07:03:20;;;;;;;6.45;4.90;;;12.40;80.30;;;;;;4979350;28;20031;-75
2023/12/17 07:05:46;;;;;;;7.20;5.03;;;12.40;80.30;;;;;;4996144;28;20042;-76
2023/12/17 07:08:11;;;;;;;7.50;5.50;;;12.40;80.30;;;;;;4995493;28;20034;-76
2023/12/17 07:10:37;;;;;;;7.05;5.13;;;12.40;80.30;;;;;;4995441;28;20053;-76
2023/12/17 07:13:06;;;;;;;7.78;5.35;;;12.40;80.30;;;;;;4995255;28;20375;-75
2023/12/17 07:15:31;;;;;;;7.18;5.32;;;12.40;80.40;;;;;;4978820;28;20034;-77
2023/12/17 07:17:57;;;;;;;7.07;5.45;;;12.40;80.30;;;;;;4979417;28;20149;-77
2023/12/17 07:20:23;;;;;;;6.88;4.95;;;12.40;80.40;;;;;;4979685;28;20027;-78
2023/12/17 07:22:49;;;;;;;7.30;5.05;;;12.40;80.40;;;;;;4978908;28;20101;-76
2023/12/17 07:25:17;;;;;;;7.90;5.45;;;12.40;80.40;;;;;;4979068;28;20071;-76
2023/12/17 07:27:43;;;;;;;8.05;6.07;;;12.40;80.40;;;;;;4995787;28;20105;-77
2023/12/17 07:30:10;;;;;;;7.47;5.50;;;12.40;80.40;;;;;;4995116;28;20475;-76
2023/12/17 07:32:35;;;;;;;7.35;5.65;;;12.40;80.40;;;;;;4995754;28;20093;-76
2023/12/17 07:35:03;;;;;;;7.95;5.47;;;12.40;80.40;;;;;;4978612;28;20059;-77
2023/12/17 07:37:29;;;;;;;7.45;5.65;;;12.40;80.40;;;;;;4994903;28;20037;-75
2023/12/17 07:39:55;;;;;;;8.40;6.15;;;12.40;80.40;;;;;;4978463;28;20039;-76
2023/12/17 07:42:21;;;;;;;7.38;5.82;;;12.40;80.40;;;;;;4978812;28;20499;-75
2023/12/17 07:44:47;;;;;;;7.57;5.45;;;12.40;80.40;;;;;;4978313;28;20121;-76
2023/12/17 07:47:13;;;;;;;7.60;5.45;;;12.40;80.40;;;;;;4979135;28;20030;-76
2023/12/17 07:49:38;;;;;;;8.07;5.78;;;12.40;80.40;;;;;;4994571;28;20117;-76
2023/12/17 07:52:04;;;;;;;7.38;5.68;;;12.40;80.40;;;;;;4978276;28;20085;-76
2023/12/17 07:54:30;;;;;;;7.90;5.57;;;12.40;80.40;;;;;;4995527;28;20030;-76
2023/12/17 07:56:56;;;;;;;8.25;6.10;;;12.40;80.40;;;;;;4995913;28;20054;-76
2023/12/17 07:59:21;;;;;;;8.27;5.70;;;12.40;80.40;;;;;;4978271;28;20070;-75
2023/12/17 08:01:48;;;;;;;7.95;5.78;;;12.40;80.40;;;;;;4977843;28;20483;-77
2023/12/17 08:04:13;;;;;;;8.13;6.15;;;12.40;80.40;;;;;;4978387;28;20522;-76
2023/12/17 08:06:39;;;;;;;8.40;6.13;;;12.40;80.40;;;;;;4977754;28;20066;-75
2023/12/17 08:09:05;;;;;;;9.43;6.72;;;12.40;80.40;;;;;;4977927;28;20133;-75
2023/12/17 08:11:31;;;;;;;9.48;6.32;;;12.30;80.40;;;;;;4994040;28;20116;-75
2023/12/17 08:13:57;;;;;;;9.57;6.57;;;12.40;80.40;;;;;;4994432;28;20034;-75
2023/12/17 08:16:22;;;;;;;8.95;6.50;;;12.40;80.40;;;;;;4994178;28;20081;-76
2023/12/17 08:18:48;;;;;;;9.05;6.60;;;12.40;80.50;;;;;;4978477;28;20058;-76
2023/12/17 08:21:14;;;;;;;7.85;5.82;;;12.40;80.40;;;;;;4978111;28;20038;-75
2023/12/17 08:23:39;;;;;;;10.65;7.43;;;12.30;80.40;;;;;;4993963;28;20030;-76
2023/12/17 08:26:05;;;;;;;9.52;6.60;;;12.30;80.40;;;;;;4977850;28;20061;-76
2023/12/17 08:28:31;;;;;;;10.48;7.15;;;12.40;80.40;;;;;;4978226;28;20356;-76
2023/12/17 08:30:57;;;;;;;9.80;7.15;;;12.40;80.50;;;;;;4993848;28;20380;-76
2023/12/17 08:33:22;;;;;;;9.18;6.75;;;12.40;80.40;;;;;;4994070;28;20034;-76
2023/12/17 08:35:48;;;;;;;10.32;7.38;;;12.30;80.40;;;;;;4978154;28;20074;-75
2023/12/17 08:38:14;;;;;;;9.25;6.70;;;12.30;80.40;;;;;;4977067;28;20353;-76
2023/12/17 08:40:40;;;;;;;10.13;7.03;;;12.30;80.40;;;;;;4994006;28;20062;-76
2023/12/17 08:43:09;;;;;;;9.00;7.03;;;12.30;80.40;;;;;;4993605;28;20031;-76
2023/12/17 08:45:36;;;;;;;10.27;7.47;;;12.40;80.50;;;;;;4993483;28;20039;-76
2023/12/17 08:48:02;;;;;;;9.20;6.47;;;12.40;80.50;;;;;;4977259;28;20055;-76
2023/12/17 08:50:28;;;;;;;9.93;6.85;;;12.30;80.50;;;;;;4994864;28;20038;-75
2023/12/17 08:52:54;;;;;;;9.05;6.55;;;12.30;80.40;;;;;;4976827;28;20030;-76
2023/12/17 08:55:20;;;;;;;10.50;7.03;;;12.40;80.50;;;;;;4994257;28;20026;-75
2023/12/17 08:57:46;;;;;;;10.88;7.22;;;12.40;80.50;;;;;;4977172;28;20066;-77
2023/12/17 09:00:13;;;;;;;10.05;7.13;;;12.40;80.50;;;;;;4977271;28;20030;-76
2023/12/17 09:02:39;;;;;;;10.10;7.40;;;12.40;80.50;;;;;;4977405;28;20458;-77
2023/12/17 09:05:06;;;;;;;10.30;7.32;;;12.30;80.40;;;;;;4993305;28;20117;-77
2023/12/17 09:07:32;;;;;;;9.25;6.70;;;12.30;80.40;;;;;;4976961;28;20061;-74
2023/12/17 09:09:58;;;;;;;10.18;7.38;;;12.30;80.50;;;;;;4993862;28;20132;-76
2023/12/17 09:12:24;;;;;;;9.73;6.75;;;12.30;80.40;;;;;;4992955;28;20034;-75
2023/12/17 09:14:50;;;;;;;10.57;7.55;;;12.30;80.40;;;;;;4992848;28;20052;-76
2023/12/17 09:17:15;;;;;;;8.85;6.38;;;12.30;80.40;;;;;;4992836;28;20030;-78
2023/12/17 09:19:41;;;;;;;9.70;6.85;;;12.30;80.40;;;;;;4992678;28;20050;-77
2023/12/17 09:22:07;;;;;;;10.43;7.10;;;12.30;80.40;;;;;;4993499;28;20030;-76
2023/12/17 09:24:34;;;;;;;8.85;6.50;;;12.30;80.40;;;;;;4992933;28;20038;-76
2023/12/17 09:27:01;;;;;;;10.50;7.45;;;12.30;80.40;;;;;;4993076;28;20364;-76
2023/12/17 09:29:27;;;;;;;9.57;7.05;;;12.30;80.40;;;;;;4993043;28;20038;-75
2023/12/17 09:31:53;;;;;;;9.73;6.70;;;12.30;80.40;;;;;;4993126;28;20386;-75
2023/12/17 09:34:19;;;;;;;9.57;6.38;;;12.30;80.40;;;;;;4977187;28;20037;-76
2023/12/17 09:36:45;;;;;;;9.38;6.63;;;12.30;80.40;;;;;;4992693;28;20080;-76
2023/12/17 09:39:11;;;;;;;9.40;7.18;;;12.30;80.40;;;;;;4976027;28;20030;-76
2023/12/17 09:41:37;;;;;;;9.02;6.35;;;12.30;80.40;;;;;;4992741;28;20081;-76
2023/12/17 09:44:06;;;;;;;9.73;6.78;;;12.30;80.40;;;;;;4976848;28;20030;-76
2023/12/17 09:46:32;;;;;;;10.70;7.45;;;12.30;80.40;;;;;;4992485;28;20475;-76
2023/12/17 09:48:59;;;;;;;9.52;6.32;;;12.30;80.40;;;;;;4993342;28;20049;-76
2023/12/17 09:51:27;;;;;;;8.43;6.20;;;12.30;80.40;;;;;;4976457;28;20471;-77
2023/12/17 09:53:56;;;;;;;9.63;6.93;;;12.30;80.40;;;;;;4980551;28;20026;-76
2023/12/17 09:56:21;;;;;;;9.15;6.60;;;12.30;80.40;;;;;;4980491;28;20061;-76
2023/12/17 09:58:47;;;;;;;8.60;5.95;;;12.30;80.40;;;;;;4980418;28;20073;-76
2023/12/17 10:01:13;;;;;;;8.48;5.90;;;12.30;81.00;;;;;;4980322;28;20483;-76
2023/12/17 10:03:39;;;;;;;8.13;5.88;;;12.30;80.40;;;;;;4996253;28;20033;-75
2023/12/17 10:06:05;;;;;;;8.90;5.97;;;12.30;80.40;;;;;;4980269;28;20026;-76
2023/12/17 10:08:32;;;;;;;10.13;6.85;;;12.30;80.40;;;;;;4980700;28;20042;-76
2023/12/17 10:10:58;;;;;;;9.02;6.30;;;12.30;80.50;;;;;;4980137;28;20037;-77
2023/12/17 10:13:23;;;;;;;7.90;5.63;;;12.30;80.50;;;;;;4996909;28;20035;-76
2023/12/17 10:15:54;;;;;;;8.13;5.70;;;12.30;80.50;;;;;;4980647;28;20499;-76
2023/12/17 10:18:21;;;;;;;8.40;5.68;;;12.30;80.50;;;;;;4980865;28;20045;-75
2023/12/17 10:20:48;;;;;;;8.18;5.57;;;12.30;80.50;;;;;;4980984;28;20034;-77
2023/12/17 10:23:14;;;;;;;7.80;5.80;;;12.30;80.50;;;;;;4997077;28;20467;-76
2023/12/17 10:25:41;;;;;;;7.85;5.50;;;12.30;80.50;;;;;;4997503;28;20038;-82
2023/12/17 10:28:12;;;;;;;9.75;6.30;;;12.30;80.50;;;;;;4997544;28;20031;-80
2023/12/17 10:30:41;;;;;;;7.70;5.30;;;12.30;80.60;;;;;;4998262;28;20056;-77
2023/12/17 10:33:10;;;;;;;9.05;5.45;;;12.30;80.50;;;;;;4996545;28;20046;-77
2023/12/17 10:35:37;;;;;;;6.72;5.05;;;12.30;80.50;;;;;;4995715;28;20031;-75
2023/12/17 10:38:05;;;;;;;8.57;5.63;;;12.30;80.60;;;;;;4996795;28;20030;-76
2023/12/17 10:40:36;;;;;;;7.75;5.22;;;12.30;80.60;;;;;;4979470;28;20041;-76
2023/12/17 10:43:04;;;;;;;7.45;5.18;;;12.30;80.50;;;;;;4996215;28;20030;-76
2023/12/17 10:45:32;;;;;;;8.45;5.45;;;12.30;80.50;;;;;;4979332;28;20038;-77
2023/12/17 10:47:59;;;;;;;7.03;5.03;;;12.30;80.60;;;;;;4978919;28;20061;-76
2023/12/17 10:50:26;;;;;;;7.03;5.00;;;12.30;80.50;;;;;;4996312;28;20031;-77
2023/12/17 10:52:53;;;;;;;7.38;5.07;;;12.30;80.50;;;;;;5012195;28;20089;-77
2023/12/17 10:55:19;;;;;;;7.32;5.53;;;12.30;80.50;;;;;;4978887;28;20501;-77
2023/12/17 10:57:53;;;;;;;6.75;5.05;;;12.30;80.60;;;;;;4978995;28;20117;-77
2023/12/17 11:00:23;;;;;;;7.93;5.70;;;12.30;80.50;;;;;;4978960;28;20056;-78
2023/12/17 11:02:52;;;;;;;7.32;5.30;;;12.30;80.50;;;;;;4994320;28;20035;-77
2023/12/17 11:05:18;;;;;;;6.82;4.53;;;12.30;80.50;;;;;;4994815;28;20065;-78
2023/12/17 11:07:44;;;;;;;7.28;5.60;;;12.30;80.50;;;;;;4996518;28;20030;-78
2023/12/17 11:10:15;;;;;;;7.55;5.20;;;12.30;80.50;;;;;;4995078;28;20501;-76
2023/12/17 11:12:44;;;;;;;6.60;4.65;;;12.30;80.50;;;;;;4994877;28;20220;-76
2023/12/17 11:15:11;;;;;;;6.45;4.68;;;12.30;80.50;;;;;;4978780;28;20038;-77
2023/12/17 11:17:38;;;;;;;6.50;4.47;;;12.30;80.50;;;;;;4994743;28;20027;-76
2023/12/17 11:20:05;;;;;;;7.00;4.85;;;12.30;80.50;;;;;;4995448;28;20034;-77
2023/12/17 11:22:37;;;;;;;6.35;4.47;;;12.30;80.50;;;;;;4978661;28;20371;-77
2023/12/17 11:25:13;;;;;;;6.57;4.38;;;12.30;80.50;;;;;;4994818;28;20030;-77
2023/12/17 11:27:40;;;;;;;6.30;4.47;;;12.30;80.50;;;;;;4978896;28;20036;-78
2023/12/17 11:30:30;;;;;;;6.40;4.65;;;12.30;80.50;;;;;;4995257;28;20046;-76
2023/12/17 11:32:57;;;;;;;6.90;5.15;;;12.30;80.70;;;;;;4979024;28;20110;-77
2023/12/17 11:35:24;;;;;;;6.32;4.82;;;12.30;80.50;;;;;;4978702;28;20026;-75
2023/12/17 11:37:50;;;;;;;6.70;4.80;;;12.30;80.50;;;;;;4995024;28;20045;-77
2023/12/17 11:40:16;;;;;;;7.13;4.88;;;12.30;80.50;;;;;;4978951;28;20030;-77
2023/12/17 11:42:53;;;;;;;6.93;4.65;;;12.30;80.50;;;;;;4978981;28;20121;-77
2023/12/17 11:45:37;;;;;;;6.25;4.50;;;12.30;80.50;;;;;;4979400;28;20023;-78
2023/12/17 11:48:14;;;;;;;6.72;4.88;;;12.30;80.50;;;;;;4996124;28;20482;-77
2023/12/17 11:50:43;;;;;;;7.07;4.80;;;12.30;80.50;;;;;;4994744;28;20031;-77
2023/12/17 11:53:13;;;;;;;6.97;5.15;;;12.30;80.50;;;;;;4995772;28;20077;-77
2023/12/17 11:55:44;;;;;;;6.70;5.00;;;12.30;80.50;;;;;;4995871;28;20050;-76
2023/12/17 11:58:10;;;;;;;7.43;5.05;;;12.30;80.50;;;;;;4996116;28;20117;-76
2023/12/17 12:00:37;;;;;;;6.47;4.68;;;12.30;80.50;;;;;;4994649;28;20031;-76
2023/12/17 12:03:04;;;;;;;7.30;5.20;;;12.30;80.50;;;;;;4978323;28;20058;-75
2023/12/17 12:05:30;;;;;;;7.50;5.13;;;12.30;80.50;;;;;;4978013;28;20486;-77
2023/12/17 12:07:57;;;;;;;7.82;5.60;;;12.30;80.50;;;;;;4978056;28;20039;-76
2023/12/17 12:10:23;;;;;;;7.15;5.10;;;12.30;80.50;;;;;;4993982;28;20054;-77
2023/12/17 12:13:04;;;;;;;8.98;6.13;;;12.30;80.50;;;;;;4979096;28;20046;-76
2023/12/17 12:15:30;;;;;;;8.05;5.82;;;12.30;80.50;;;;;;4994317;28;20026;-77
2023/12/17 12:17:56;;;;;;;7.13;5.25;;;12.30;80.40;;;;;;4978719;28;20169;-78
2023/12/17 12:20:37;;;;;;;7.53;5.38;;;12.30;80.50;;;;;;4994795;28;20035;-77
2023/12/17 12:23:12;;;;;;;7.50;5.65;;;12.30;80.50;;;;;;4994740;28;20141;-76
2023/12/17 12:25:38;;;;;;;7.93;5.47;;;12.30;80.50;;;;;;4995225;28;20038;-76
2023/12/17 12:28:16;;;;;;;7.00;5.38;;;12.30;80.50;;;;;;4995646;28;20030;-76
2023/12/17 12:30:41;;;;;;;7.30;5.32;;;12.30;80.50;;;;;;4996249;28;20113;-77
2023/12/17 12:33:17;;;;;;;8.18;5.68;;;12.30;80.50;;;;;;4994589;28;20054;-78
2023/12/17 12:35:44;;;;;;;7.88;5.80;;;12.30;80.60;;;;;;4994550;28;20368;-77
2023/12/17 12:38:26;;;;;;;8.20;5.82;;;12.30;80.50;;;;;;4995027;28;20089;-76
2023/12/17 12:40:54;;;;;;;7.72;5.72;;;12.30;80.60;;;;;;4994823;28;20546;-76
2023/12/17 12:43:21;;;;;;;7.82;5.75;;;12.30;80.50;;;;;;4995493;28;20035;-78